• Join FlightAware (Why Join?)
  • Login
  • US Flag 
12:46PM EDT


 

Airport Tracker/Info


-or-


 

Live Flight TrackerFlight Track Log ✈ AAY696 ✈ 09-Aug-2014 ✈ KSFB - KTYS

Flight Track Log - Related Links

Times and Time Zones

All times are in EDT time to prevent confusion due to time zone crossing. See the AAY696 flight status page for this flight to view local times or setup timezone preferences in your user account.

Time Position Orientation Groundspeed Altitude Reporting Facility
EDT Latitude Longitude Course Direction KTS MPH feet Rate Location/Type
06:47AM 28.7833 -81.2500 270° West 147 169 900  Level Orlando TRACON
06:47AM 28.7833 -81.3000 270° West 174 200 2,100 1,680 Climbing Orlando TRACON
06:48AM 28.8333 -81.3500 319° Northwest 262 302 3,800 2,220 Climbing Orlando TRACON
06:50AM 28.9400 -81.3647 353° North 301 346 7,700 2,160 Climbing Jacksonville Center
06:51AM 29.0239 -81.3822 350° North 311 358 9,200 1,740 Climbing Jacksonville Center
06:52AM 29.1094 -81.3928 354° North 311 358 11,200 1,980 Climbing Jacksonville Center
06:53AM 29.2119 -81.4081 353° North 352 405 13,200 2,220 Climbing Jacksonville Center
06:54AM 29.3144 -81.4231 353° North 362 417 15,700 2,160 Climbing Jacksonville Center
06:55AM 29.4086 -81.4431 350° North 367 422 17,600 1,800 Climbing Jacksonville Center
06:56AM 29.5111 -81.4608 351° North 372 428 19,300 1,740 Climbing Jacksonville Center
06:57AM 29.6197 -81.4806 351° North 378 435 21,100 1,620 Climbing Jacksonville Center
06:58AM 29.7267 -81.5222 341° North 388 447 22,600 1,380 Climbing Jacksonville Center
06:59AM 29.8400 -81.5564 345° North 401 461 23,900 1,200 Climbing Jacksonville Center
07:00AM 29.9550 -81.5956 344° North 418 481 25,000 1,200 Climbing Jacksonville Center
07:01AM 30.0703 -81.6350 344° North 423 487 26,400 1,200 Climbing Jacksonville Center
07:02AM 30.1919 -81.6767 344° North 433 498 27,400 1,080 Climbing Jacksonville Center
07:03AM 30.3258 -81.7181 345° North 448 516 28,600 1,020 Climbing Jacksonville Center
07:04AM 30.4347 -81.7578 343° North 453 521 29,500 900 Climbing Jacksonville Center
07:05AM 30.5750 -81.8092 342° North 464 534 30,400 1,020 Climbing Jacksonville Center
07:06AM 30.7028 -81.8511 344° North 469 540 31,600 1,140 Climbing Jacksonville Center
07:07AM 30.8264 -81.8958 343° North 464 534 32,700 1,260 Climbing Jacksonville Center
07:08AM 30.9478 -81.9381 343° North 458 527 34,200 1,200 Climbing Jacksonville Center
07:09AM 31.0692 -81.9806 343° North 458 527 35,100 1,080 Climbing Jacksonville Center
07:10AM 31.1886 -82.0208 344° North 453 521 36,400 900 Climbing Jacksonville Center
07:11AM 31.3058 -82.0633 343° North 447 514 37,000 300 Climbing Jacksonville Center
07:12AM 31.4250 -82.1061 343° North 433 498 37,000  Level Jacksonville Center
07:13AM 31.5442 -82.1492 343° North 436 502 37,000  Level Jacksonville Center
07:14AM 31.6614 -82.1897 344° North 444 511 37,100  Climbing Jacksonville Center
07:15AM 31.7703 -82.2278 343° North 444 511 37,100 -60 Level Jacksonville Center
07:17AM 31.9911 -82.3031 344° North 446 513 37,000 -60 Descending Atlanta Center
07:18AM 32.1083 -82.3447 343° North 442 509 37,000  Level Atlanta Center
07:19AM 32.2244 -82.3872 343° North 441 507 37,000  Level Atlanta Center
07:20AM 32.3569 -82.4364 343° North 440 506 37,000  Level Atlanta Center
07:21AM 32.4744 -82.4778 343° North 441 507 37,000  Level Atlanta Center
07:22AM 32.5914 -82.5189 344° North 441 507 37,000  Level Atlanta Center
07:23AM 32.7086 -82.5608 343° North 441 507 37,000  Level Atlanta Center
07:24AM 32.8261 -82.6036 343° North 442 509 37,000  Level Atlanta Center
07:25AM 32.9431 -82.6481 342° North 443 510 37,000  Level Atlanta Center
07:26AM 33.0597 -82.6894 343° North 442 509 37,000  Level Atlanta Center
07:27AM 33.2006 -82.7403 343° North 440 506 37,000  Level Atlanta Center
07:28AM 33.3153 -82.7831 343° North 438 504 37,000  Level Atlanta Center
07:29AM 33.4294 -82.8242 343° North 437 503 37,000  Level Atlanta Center
07:30AM 33.5447 -82.8664 343° North 436 502 37,000  Level Atlanta Center
07:31AM 33.6600 -82.9092 343° North 436 502 37,000 -300 Level Atlanta Center
07:32AM 33.7747 -82.9514 343° North 435 501 36,400 -840 Descending Atlanta Center
07:33AM 33.8883 -82.9939 343° North 433 498 35,400 -1,080 Descending Atlanta Center
07:34AM 34.0269 -83.0456 343° North 433 498 34,300 -1,080 Descending Atlanta Center
07:35AM 34.1461 -83.0900 343° North 442 509 33,300 -1,080 Descending Atlanta Center
07:36AM 34.2647 -83.1347 343° North 445 512 32,200 -1,620 Descending Atlanta Center
07:37AM 34.3814 -83.1767 343° North 444 511 30,100 -1,080 Descending Atlanta Center
07:38AM 34.4956 -83.2203 343° North 438 504 30,000 -720 Descending Atlanta Center
07:39AM 34.6100 -83.2631 343° North 436 502 28,700 -1,500 Descending Atlanta Center
07:40AM 34.7272 -83.3133 341° North 426 490 27,000 -1,980 Descending Atlanta Center
07:41AM 34.8419 -83.3850 333° Northwest 412 474 24,700 -1,860 Descending Atlanta Center
07:42AM 34.9247 -83.4392 332° Northwest 402 463 23,200 -1,920 Descending Atlanta Center
07:43AM 35.0375 -83.5108 333° Northwest 387 445 20,800 -2,160 Descending Atlanta Center
07:44AM 35.1247 -83.5642 333° Northwest 375 432 18,800 -1,920 Descending Atlanta Center
07:45AM 35.2136 -83.6197 333° Northwest 366 421 16,900 -1,740 Descending Atlanta Center
07:46AM 35.3017 -83.6736 333° Northwest 358 412 15,300 -1,860 Descending Atlanta Center
07:47AM 35.3819 -83.7250 332° Northwest 336 387 13,100 -2,280 Descending Atlanta Center
07:48AM 35.4742 -83.7825 333° Northwest 315 362 10,700 -1,920 Descending Atlanta Center
07:49AM 35.5472 -83.8278 333° Northwest 302 348 9,200 -1,500 Descending Atlanta Center
07:50AM 35.6286 -83.8314 358° North 296 341 7,600 -1,080 Descending Atlanta Center
07:51AM 35.7047 -83.8333 359° North 281 323 7,000 -540 Descending Atlanta Center
07:52AM 35.7700 -83.8231 North 252 290 6,600 -960 Descending Atlanta Center
07:54AM 35.8333 -83.7967 19° North 242 278 5,100 -1,440 Descending Atlanta Center
07:55AM 35.9075 -83.7750 13° North 238 274 3,700 -1,020 Descending Atlanta Center
07:56AM 35.9331 -83.8256 302° West 197 227 3,000 -360 Descending Atlanta Center
07:57AM 35.9094 -83.8794 242° Southwest 183 211 3,000 -240 Level Atlanta Center
07:58AM 35.8808 -83.9133 224° Southwest 147 169 2,600 -540 Descending Atlanta Center
07:59AM 35.8550 -83.9458 226° Southwest 138 159 1,900 -780 Descending Atlanta Center
08:00AM 35.8283 -83.9786 225° Southwest 138 159 1,100 -540 Descending Atlanta Center
08:01AM 35.8100 -84.0006 224° Southwest 122 140 900 -240 Descending Atlanta Center